createdAt,value
2018-11-02T00:01:29.275Z,23.82
2018-11-02T00:03:57.480Z,23.81
2018-11-02T00:06:25.659Z,23.80
2018-11-02T00:08:53.960Z,23.79
2018-11-02T00:11:22.065Z,23.79
2018-11-02T00:13:51.480Z,23.78
2018-11-02T00:16:19.724Z,23.77
2018-11-02T00:18:47.808Z,23.76
2018-11-02T00:21:15.883Z,23.75
2018-11-02T00:23:43.962Z,23.74
2018-11-02T00:26:12.060Z,23.73
2018-11-02T00:28:40.121Z,23.72
2018-11-02T00:31:08.234Z,23.71
2018-11-02T00:33:36.370Z,23.70
2018-11-02T00:36:04.448Z,23.70
2018-11-02T00:38:32.544Z,23.69
2018-11-02T00:41:00.651Z,23.70
2018-11-02T00:43:28.744Z,23.67
2018-11-02T00:45:56.840Z,23.67
2018-11-02T00:48:24.936Z,23.65
2018-11-02T00:50:53.004Z,23.64
2018-11-02T00:53:21.088Z,23.63
2018-11-02T00:55:49.153Z,23.61
2018-11-02T00:58:17.280Z,23.61
2018-11-02T01:00:45.348Z,23.60
2018-11-02T01:03:13.453Z,23.59
2018-11-02T01:05:41.556Z,23.58
2018-11-02T01:08:09.641Z,23.56
2018-11-02T01:10:37.704Z,23.56
2018-11-02T01:13:05.789Z,23.55
2018-11-02T01:15:34.701Z,23.54
2018-11-02T01:18:02.837Z,23.53
2018-11-02T01:20:30.947Z,23.51
2018-11-02T01:22:58.984Z,23.51
2018-11-02T01:25:27.052Z,23.49
2018-11-02T01:27:55.112Z,23.47
2018-11-02T01:30:23.202Z,23.47
2018-11-02T01:32:51.268Z,23.46
2018-11-02T01:35:19.353Z,23.46
2018-11-02T01:37:47.440Z,23.43
2018-11-02T01:40:15.496Z,23.43
2018-11-02T01:42:43.559Z,23.42
2018-11-02T01:45:11.620Z,23.41
2018-11-02T01:47:39.751Z,23.40
2018-11-02T01:50:07.863Z,23.39
2018-11-02T01:52:35.968Z,23.38
2018-11-02T01:55:04.617Z,23.38
2018-11-02T01:57:32.689Z,23.36
2018-11-02T02:00:00.844Z,23.35
2018-11-02T02:02:28.905Z,23.34
2018-11-02T02:04:57.204Z,23.33
2018-11-02T02:07:25.272Z,23.31
2018-11-02T02:09:53.336Z,23.32
2018-11-02T02:12:21.417Z,23.31
2018-11-02T02:14:49.450Z,23.29
2018-11-02T02:17:17.502Z,23.28
2018-11-02T02:19:45.579Z,23.27
2018-11-02T02:22:13.633Z,23.27
2018-11-02T02:24:41.674Z,23.27
2018-11-02T02:27:09.746Z,23.25
2018-11-02T02:29:37.839Z,23.24
2018-11-02T02:46:19.070Z,23.14
2018-11-02T02:48:47.165Z,23.12
2018-11-02T02:51:15.304Z,23.11
2018-11-02T02:53:43.417Z,23.12
2018-11-02T02:56:11.537Z,23.12
2018-11-02T02:58:39.681Z,23.12
2018-11-02T03:01:07.802Z,23.10
2018-11-02T03:03:35.908Z,23.11
2018-11-02T03:06:04.063Z,23.10
2018-11-02T03:08:32.166Z,23.11
2018-11-02T03:11:00.541Z,23.10
2018-11-02T03:13:28.407Z,23.10
2018-11-02T03:15:56.517Z,23.08
2018-11-02T03:18:24.643Z,23.08
2018-11-02T03:20:52.739Z,23.08
2018-11-02T03:23:20.824Z,23.07
2018-11-02T03:25:48.942Z,23.06
2018-11-02T03:28:17.085Z,23.06
2018-11-02T03:30:45.242Z,23.05
2018-11-02T03:33:14.432Z,23.04
2018-11-02T03:35:42.677Z,23.04
2018-11-02T03:38:10.805Z,23.02
2018-11-02T03:40:38.913Z,23.02
2018-11-02T03:43:07.075Z,23.01
2018-11-02T03:45:35.187Z,23.01
2018-11-02T03:48:03.297Z,23.00
2018-11-02T03:50:31.428Z,22.99
2018-11-02T03:52:59.587Z,22.98
2018-11-02T03:55:27.713Z,22.97
2018-11-02T03:57:55.842Z,22.97
2018-11-02T04:00:24.336Z,22.95
2018-11-02T04:02:52.481Z,22.95
2018-11-02T04:05:20.610Z,22.94
2018-11-02T04:07:48.813Z,22.93
2018-11-02T04:10:16.982Z,22.91
2018-11-02T04:12:45.145Z,22.92
2018-11-02T04:15:13.260Z,22.91
2018-11-02T04:17:41.495Z,22.90
2018-11-02T04:20:10.007Z,22.89
2018-11-02T04:22:38.118Z,22.88
2018-11-02T04:25:06.563Z,22.86
2018-11-02T04:27:34.682Z,22.85
2018-11-02T04:30:02.733Z,22.85
2018-11-02T04:32:30.789Z,22.85
2018-11-02T04:34:58.832Z,22.83
2018-11-02T04:37:26.989Z,22.82
2018-11-02T04:39:55.522Z,22.81
2018-11-02T04:42:23.584Z,22.81
2018-11-02T04:44:51.698Z,22.79
2018-11-02T04:47:19.798Z,22.78
2018-11-02T04:49:47.889Z,22.78
2018-11-02T04:52:15.960Z,22.78
2018-11-02T04:54:44.021Z,22.76
2018-11-02T04:57:12.091Z,22.75
2018-11-02T04:59:40.204Z,22.75
2018-11-02T05:02:08.281Z,22.74
2018-11-02T05:04:36.430Z,22.73
2018-11-02T05:07:04.813Z,22.72
2018-11-02T05:09:32.948Z,22.72
2018-11-02T05:12:01.062Z,22.71
2018-11-02T05:14:29.198Z,22.70
2018-11-02T05:16:57.310Z,22.70
2018-11-02T05:19:25.455Z,22.69
2018-11-02T05:21:53.566Z,22.68
2018-11-02T05:24:21.783Z,22.68
2018-11-02T05:26:49.893Z,22.68
2018-11-02T05:29:18.294Z,22.66
2018-11-02T05:31:46.354Z,22.66
2018-11-02T05:34:14.420Z,22.66
2018-11-02T05:36:42.489Z,22.65
2018-11-02T05:39:12.287Z,22.65
2018-11-02T05:41:40.463Z,22.63
2018-11-02T05:44:08.729Z,22.63
2018-11-02T05:46:37.003Z,22.62
2018-11-02T05:49:05.276Z,22.61
2018-11-02T05:51:33.452Z,22.61
2018-11-02T05:54:01.534Z,22.60
2018-11-02T05:56:29.697Z,22.59
2018-11-02T05:58:57.758Z,22.60
2018-11-02T06:01:25.814Z,22.59
2018-11-02T06:03:53.954Z,22.58
2018-11-02T06:06:22.024Z,22.56
2018-11-02T06:08:50.142Z,22.55
2018-11-02T06:11:18.198Z,22.54
2018-11-02T06:13:46.362Z,22.53
2018-11-02T06:16:14.441Z,22.52
2018-11-02T06:18:42.573Z,22.51
2018-11-02T06:21:10.609Z,22.49
2018-11-02T06:23:38.710Z,22.47
2018-11-02T06:26:06.752Z,22.46
2018-11-02T06:28:34.884Z,22.45
2018-11-02T06:31:02.954Z,22.45
2018-11-02T06:33:31.009Z,22.44
2018-11-02T06:35:59.086Z,22.43
2018-11-02T06:38:27.216Z,22.42
2018-11-02T06:40:55.256Z,22.42
2018-11-02T06:43:23.746Z,22.41
2018-11-02T06:45:51.892Z,22.40
2018-11-02T06:48:19.936Z,22.40
2018-11-02T06:50:48.057Z,22.38
2018-11-02T06:53:16.090Z,22.39
2018-11-02T06:55:44.680Z,22.40
2018-11-02T06:58:12.724Z,22.43
2018-11-02T07:00:40.771Z,22.47
2018-11-02T07:03:08.818Z,22.51
2018-11-02T07:05:36.878Z,22.53
2018-11-02T07:08:05.232Z,22.55
2018-11-02T07:10:33.095Z,22.58
2018-11-02T07:13:01.165Z,22.61
2018-11-02T07:15:29.245Z,22.66
2018-11-02T07:17:57.302Z,22.68
2018-11-02T07:20:25.403Z,22.68
2018-11-02T07:22:53.413Z,22.69
2018-11-02T07:25:21.513Z,22.69
2018-11-02T07:27:49.574Z,22.69
2018-11-02T07:30:17.758Z,22.69
2018-11-02T07:32:46.894Z,22.71
2018-11-02T07:35:15.013Z,22.75
2018-11-02T07:37:43.219Z,22.77
2018-11-02T07:40:11.894Z,22.78
2018-11-02T07:42:40.158Z,22.79
2018-11-02T07:45:08.858Z,22.81
2018-11-02T07:47:36.992Z,22.83
2018-11-02T07:50:07.362Z,22.80
2018-11-02T07:52:35.477Z,22.83
2018-11-02T07:55:03.665Z,22.85
2018-11-02T07:57:31.790Z,22.87
2018-11-02T07:59:59.897Z,22.88
2018-11-02T08:02:28.086Z,22.89
2018-11-02T08:04:56.207Z,22.90
2018-11-02T08:07:24.341Z,22.91
2018-11-02T08:09:52.448Z,22.91
2018-11-02T08:12:20.555Z,22.92
2018-11-02T08:14:48.846Z,22.92
2018-11-02T08:17:16.983Z,22.98
2018-11-02T08:19:45.107Z,23.02
2018-11-02T08:22:13.230Z,23.02
2018-11-02T08:24:41.399Z,23.07
2018-11-02T08:27:09.494Z,23.11
2018-11-02T08:29:37.612Z,23.16
2018-11-02T08:32:05.705Z,23.19
2018-11-02T08:34:33.740Z,23.22
2018-11-02T08:37:01.799Z,23.24
2018-11-02T08:39:29.861Z,23.27
2018-11-02T08:41:58.502Z,23.29
2018-11-02T08:44:26.571Z,23.29
2018-11-02T08:46:54.690Z,23.28
2018-11-02T08:49:22.783Z,23.34
2018-11-02T08:51:50.849Z,23.38
2018-11-02T08:54:18.961Z,23.42
2018-11-02T08:56:47.715Z,23.45
2018-11-02T08:59:15.868Z,23.50
2018-11-02T09:01:43.983Z,23.54
2018-11-02T09:04:12.581Z,23.59
2018-11-02T09:06:40.761Z,23.62
2018-11-02T09:09:09.624Z,23.64
2018-11-02T09:11:37.704Z,23.69
2018-11-02T09:14:05.849Z,23.73
2018-11-02T09:16:33.900Z,23.72
2018-11-02T09:19:02.011Z,23.73
2018-11-02T09:21:31.272Z,23.75
2018-11-02T09:23:59.068Z,23.77
2018-11-02T09:26:27.250Z,23.78
2018-11-02T09:28:55.727Z,23.80
2018-11-02T09:31:23.786Z,23.83
2018-11-02T09:33:51.830Z,23.86
2018-11-02T09:36:19.926Z,23.90
2018-11-02T09:38:48.028Z,23.93
2018-11-02T09:41:16.148Z,23.94
2018-11-02T09:43:44.234Z,24.01
2018-11-02T09:46:12.278Z,24.02
2018-11-02T09:48:40.319Z,24.02
2018-11-02T09:51:08.410Z,24.03
2018-11-02T09:53:36.456Z,24.06
2018-11-02T09:56:04.617Z,24.09
2018-11-02T09:58:32.666Z,24.09
2018-11-02T10:01:00.721Z,24.09
2018-11-02T10:03:28.790Z,24.11
2018-11-02T10:05:56.829Z,24.12
2018-11-02T10:08:25.021Z,24.14
2018-11-02T10:10:54.026Z,24.14
2018-11-02T10:13:22.109Z,24.13
2018-11-02T10:15:50.178Z,24.13
2018-11-02T10:18:18.269Z,24.16
2018-11-02T10:20:46.329Z,24.16
2018-11-02T10:23:14.410Z,24.16
2018-11-02T10:25:42.499Z,24.15
2018-11-02T10:28:10.559Z,24.16
2018-11-02T10:30:38.723Z,24.15
2018-11-02T10:33:06.884Z,24.17
2018-11-02T10:35:35.052Z,24.15
2018-11-02T10:38:03.464Z,24.15
2018-11-02T10:40:33.222Z,24.17
2018-11-02T10:43:04.246Z,24.15
2018-11-02T10:45:35.336Z,24.16
2018-11-02T10:48:04.746Z,24.15
2018-11-02T10:50:32.894Z,24.15
2018-11-02T10:53:01.089Z,24.13
2018-11-02T10:55:29.330Z,24.13
2018-11-02T10:57:57.500Z,24.10
2018-11-02T11:00:31.155Z,24.09
2018-11-02T11:02:59.236Z,24.08
2018-11-02T11:05:27.457Z,24.07
2018-11-02T11:07:55.668Z,24.06
2018-11-02T11:10:23.815Z,24.05
2018-11-02T11:12:52.388Z,24.04
2018-11-02T11:15:20.182Z,24.04
2018-11-02T11:17:48.313Z,24.04
2018-11-02T11:20:16.526Z,24.04
2018-11-02T11:22:44.805Z,24.03
2018-11-02T11:25:14.432Z,24.04
2018-11-02T11:27:42.553Z,24.05
2018-11-02T11:30:13.963Z,24.03
2018-11-02T11:32:42.118Z,24.02
2018-11-02T11:35:11.922Z,23.99
2018-11-02T11:37:40.488Z,24.01
2018-11-02T11:40:10.635Z,24.01
2018-11-02T11:42:38.785Z,24.01
2018-11-02T11:45:08.202Z,23.98
2018-11-02T11:47:36.613Z,23.97
2018-11-02T11:50:08.333Z,23.97
2018-11-02T11:52:36.533Z,23.97
2018-11-02T11:55:05.052Z,23.95
2018-11-02T11:57:33.278Z,23.95
2018-11-02T12:00:01.512Z,23.93
2018-11-02T12:02:29.841Z,23.91
2018-11-02T12:04:58.014Z,23.90
2018-11-02T12:07:26.202Z,23.88
2018-11-02T12:09:54.380Z,23.87
2018-11-02T12:12:22.672Z,23.87
2018-11-02T12:14:50.877Z,23.85
2018-11-02T12:17:18.929Z,23.84
2018-11-02T12:19:46.965Z,23.82
2018-11-02T12:22:15.025Z,23.81
2018-11-02T12:24:43.209Z,23.78
2018-11-02T12:27:11.283Z,23.79
2018-11-02T12:29:39.334Z,23.77
2018-11-02T12:32:07.482Z,23.76
2018-11-02T12:34:35.589Z,23.74
2018-11-02T12:37:03.756Z,23.73
2018-11-02T12:39:31.849Z,23.71
2018-11-02T12:42:00.013Z,23.71
2018-11-02T12:44:28.106Z,23.69
2018-11-02T12:46:56.305Z,23.67
2018-11-02T12:49:24.761Z,23.65
2018-11-02T12:51:52.553Z,23.64
2018-11-02T12:54:20.699Z,23.63
2018-11-02T12:56:48.822Z,23.60
2018-11-02T12:59:16.928Z,23.59
2018-11-02T13:01:45.065Z,23.56
2018-11-02T13:04:13.180Z,23.54
2018-11-02T13:06:41.421Z,23.53
2018-11-02T13:09:10.115Z,23.51
2018-11-02T13:11:38.300Z,23.48
2018-11-02T13:14:06.406Z,23.47
2018-11-02T13:16:35.079Z,23.45
2018-11-02T13:19:04.171Z,23.44
2018-11-02T13:21:32.445Z,23.43
2018-11-02T13:24:00.835Z,23.41
2018-11-02T13:26:29.355Z,23.39
2018-11-02T13:28:57.331Z,23.38
2018-11-02T13:31:25.532Z,23.33
2018-11-02T13:33:53.577Z,23.29
2018-11-02T13:36:21.781Z,23.30
2018-11-02T13:38:49.902Z,23.28
2018-11-02T13:41:18.017Z,23.27
2018-11-02T13:43:46.462Z,23.26
2018-11-02T13:46:14.784Z,23.25
2018-11-02T13:48:43.347Z,23.23
2018-11-02T13:51:11.777Z,23.22
2018-11-02T13:53:40.232Z,23.21
2018-11-02T13:56:08.324Z,23.19
2018-11-02T13:58:36.478Z,23.18
2018-11-02T14:01:04.591Z,23.17
2018-11-02T14:03:32.747Z,23.17
2018-11-02T14:06:01.143Z,23.14
2018-11-02T14:08:29.385Z,23.13
2018-11-02T14:10:57.787Z,23.12
2018-11-02T14:13:26.436Z,23.12
2018-11-02T14:15:55.007Z,23.11
2018-11-02T14:18:23.249Z,23.09
2018-11-02T14:20:52.423Z,23.09
2018-11-02T14:23:20.598Z,23.09
2018-11-02T14:25:48.758Z,23.09
2018-11-02T14:28:17.495Z,23.08
2018-11-02T14:30:46.034Z,23.06
2018-11-02T14:33:14.273Z,23.06
2018-11-02T14:35:42.478Z,23.05
2018-11-02T14:38:10.622Z,23.05
2018-11-02T14:40:38.713Z,23.05
2018-11-02T14:43:07.446Z,23.04
2018-11-02T14:45:35.562Z,23.03
2018-11-02T14:48:03.669Z,23.02
2018-11-02T14:50:31.726Z,23.01
2018-11-02T14:52:59.806Z,22.99
2018-11-02T14:55:27.858Z,23.00
2018-11-02T14:57:55.943Z,23.01
2018-11-02T15:00:24.001Z,22.98
2018-11-02T15:02:52.480Z,22.99
2018-11-02T15:05:20.561Z,22.99
2018-11-02T15:07:48.720Z,23.01
2018-11-02T15:10:16.822Z,23.03
2018-11-02T15:12:44.985Z,23.03
2018-11-02T15:15:13.080Z,23.04
2018-11-02T15:17:41.414Z,23.04
2018-11-02T15:20:12.659Z,23.05
2018-11-02T15:22:40.818Z,23.06
2018-11-02T15:25:09.292Z,23.07
2018-11-02T15:27:37.390Z,23.07
2018-11-02T15:30:08.965Z,23.09
2018-11-02T15:32:37.285Z,23.09
2018-11-02T15:35:06.361Z,23.08
2018-11-02T15:37:34.418Z,23.10
2018-11-02T15:40:02.496Z,23.10
2018-11-02T15:42:30.594Z,23.11
2018-11-02T15:44:58.741Z,23.12
2018-11-02T15:47:26.905Z,23.13
2018-11-02T15:49:55.017Z,23.13
2018-11-02T15:52:23.186Z,23.14
2018-11-02T15:54:51.326Z,23.15
2018-11-02T15:57:19.445Z,23.15
2018-11-02T15:59:47.566Z,23.14
2018-11-02T16:02:15.686Z,23.15
2018-11-02T16:04:43.869Z,23.18
2018-11-02T16:07:12.006Z,23.19
2018-11-02T16:09:40.194Z,23.21
2018-11-02T16:12:08.410Z,23.25
2018-11-02T16:14:36.529Z,23.29
2018-11-02T16:17:05.057Z,23.33
2018-11-02T16:19:33.291Z,23.35
2018-11-02T16:22:01.418Z,23.40
2018-11-02T16:24:30.329Z,23.43
2018-11-02T16:26:58.639Z,23.47
2018-11-02T16:29:26.769Z,23.48
2018-11-02T16:31:54.880Z,23.52
2018-11-02T16:34:23.097Z,23.54
2018-11-02T16:36:52.037Z,23.58
2018-11-02T16:39:20.144Z,23.63
2018-11-02T16:41:48.252Z,23.67
2018-11-02T16:44:16.451Z,23.70
2018-11-02T16:46:44.521Z,23.70
2018-11-02T16:49:13.885Z,23.71
2018-11-02T16:51:42.434Z,23.74
2018-11-02T16:54:10.872Z,23.78
2018-11-02T16:56:39.035Z,23.82
2018-11-02T16:59:07.136Z,23.85
2018-11-02T17:01:35.298Z,23.84
2018-11-02T17:04:03.474Z,23.87
2018-11-02T17:06:31.624Z,23.88
2018-11-02T17:08:59.738Z,23.90
2018-11-02T17:11:27.902Z,23.88
2018-11-02T17:13:56.064Z,23.90
2018-11-02T17:16:24.179Z,23.91
2018-11-02T17:18:52.290Z,23.92
2018-11-02T17:21:20.489Z,23.93
2018-11-02T17:23:48.628Z,23.93
2018-11-02T17:26:16.764Z,23.93
2018-11-02T17:28:44.881Z,23.95
2018-11-02T17:31:13.018Z,23.96
2018-11-02T17:33:41.088Z,23.97
2018-11-02T17:36:09.132Z,23.98
2018-11-02T17:38:37.274Z,24.02
2018-11-02T17:41:05.994Z,24.02
2018-11-02T17:43:34.082Z,24.02
2018-11-02T17:46:02.416Z,24.04
2018-11-02T17:48:31.490Z,24.07
2018-11-02T17:51:00.875Z,24.10
2018-11-02T17:53:30.063Z,24.13
2018-11-02T17:55:58.286Z,24.13
2018-11-02T17:58:26.619Z,24.13
2018-11-02T18:00:54.801Z,24.17
2018-11-02T18:03:23.131Z,24.18
2018-11-02T18:05:51.237Z,24.18
2018-11-02T18:08:20.333Z,24.19
2018-11-02T18:10:48.853Z,24.20
2018-11-02T18:13:17.191Z,24.24
2018-11-02T18:15:45.633Z,24.31
2018-11-02T18:18:13.855Z,24.34
2018-11-02T18:20:42.108Z,24.42
2018-11-02T18:23:11.272Z,24.46
2018-11-02T18:25:39.384Z,24.37
2018-11-02T18:28:07.436Z,24.30
2018-11-02T18:30:35.511Z,24.24
2018-11-02T18:33:03.586Z,24.23
2018-11-02T18:35:31.884Z,24.27
2018-11-02T18:37:59.996Z,24.35
2018-11-02T18:40:28.440Z,24.37
2018-11-02T18:42:56.669Z,24.39
2018-11-02T18:45:24.765Z,24.41
2018-11-02T18:47:52.907Z,24.43
2018-11-02T18:50:22.251Z,24.46
2018-11-02T18:52:50.646Z,24.45
2018-11-02T18:55:19.426Z,24.43
2018-11-02T18:57:47.562Z,24.40
2018-11-02T19:00:15.903Z,24.39
2018-11-02T19:02:44.090Z,24.36
2018-11-02T19:05:16.919Z,24.34
2018-11-02T19:07:45.290Z,24.31
2018-11-02T19:10:13.428Z,24.29
2018-11-02T19:12:42.141Z,24.25
2018-11-02T19:15:14.916Z,24.23
2018-11-02T19:17:43.201Z,24.22
2018-11-02T19:20:11.962Z,24.23
2018-11-02T19:22:40.347Z,24.20
2018-11-02T19:25:09.786Z,24.19
2018-11-02T19:27:37.991Z,24.17
2018-11-02T19:30:07.759Z,24.14
2018-11-02T19:32:35.884Z,24.13
2018-11-02T19:35:04.295Z,24.12
2018-11-02T19:37:32.270Z,24.10
2018-11-02T19:40:00.473Z,24.08
2018-11-02T19:42:29.045Z,24.07
2018-11-02T19:44:57.631Z,24.06
2018-11-02T19:47:29.910Z,24.09
2018-11-02T19:49:58.023Z,24.10
2018-11-02T19:52:26.937Z,24.08
2018-11-02T19:54:55.055Z,24.05
2018-11-02T19:57:23.128Z,24.03
2018-11-02T19:59:51.174Z,23.99
2018-11-02T20:02:19.266Z,23.98
2018-11-02T20:04:47.353Z,23.93
2018-11-02T20:07:15.450Z,23.93
2018-11-02T20:09:43.521Z,23.91
2018-11-02T20:12:11.574Z,23.89
2018-11-02T20:14:39.680Z,23.87
2018-11-02T20:17:07.798Z,23.85
2018-11-02T20:19:35.896Z,23.83
2018-11-02T20:22:03.946Z,23.80
2018-11-02T20:24:32.046Z,23.77
2018-11-02T20:27:00.112Z,23.75
2018-11-02T20:29:28.213Z,23.71
2018-11-02T20:31:56.457Z,23.67
2018-11-02T20:34:24.550Z,23.64
2018-11-02T20:36:52.725Z,23.60
2018-11-02T20:39:20.983Z,23.59
2018-11-02T20:41:49.988Z,23.56
2018-11-02T20:44:18.102Z,23.54
2018-11-02T20:46:46.217Z,23.52
2018-11-02T20:49:14.428Z,23.48
2018-11-02T20:51:42.550Z,23.45
2018-11-02T20:54:10.786Z,23.42
2018-11-02T20:56:38.965Z,23.40
2018-11-02T20:59:07.077Z,23.37
2018-11-02T21:01:35.802Z,23.35
2018-11-02T21:04:03.979Z,23.33
2018-11-02T21:08:59.537Z,23.27
2018-11-02T21:11:27.743Z,23.25
2018-11-02T21:13:55.972Z,23.22
2018-11-02T21:16:24.522Z,23.19
2018-11-02T21:18:52.876Z,23.17
2018-11-02T21:21:21.263Z,23.15
2018-11-02T21:23:49.361Z,23.13
2018-11-02T21:26:17.578Z,23.12
2018-11-02T21:28:45.726Z,23.10
2018-11-02T21:31:13.879Z,23.08
2018-11-02T21:33:42.143Z,23.05
2018-11-02T21:36:10.383Z,23.01
2018-11-02T21:38:39.087Z,22.99
2018-11-02T21:41:07.289Z,22.96
2018-11-02T21:43:35.881Z,22.96
2018-11-02T21:46:04.083Z,22.92
2018-11-02T21:48:32.638Z,22.89
2018-11-02T21:51:00.809Z,22.88
2018-11-02T21:53:28.995Z,22.86
2018-11-02T21:55:57.198Z,22.84
2018-11-02T21:58:25.640Z,22.81
2018-11-02T22:00:53.759Z,22.80
2018-11-02T22:03:21.893Z,22.79
2018-11-02T22:05:50.417Z,22.77
2018-11-02T22:08:19.485Z,22.72
2018-11-02T22:10:47.666Z,22.70
2018-11-02T22:13:15.835Z,22.67
2018-11-02T22:15:44.118Z,22.64
2018-11-02T22:18:12.276Z,22.64
2018-11-02T22:20:40.828Z,22.62
2018-11-02T22:23:08.986Z,22.59
2018-11-02T22:25:37.136Z,22.58
2018-11-02T22:28:05.667Z,22.56
2018-11-02T22:30:33.818Z,22.54
2018-11-02T22:33:03.112Z,22.52
2018-11-02T22:35:31.245Z,22.50
2018-11-02T22:37:59.352Z,22.48
2018-11-02T22:40:27.557Z,22.45
2018-11-02T22:42:55.718Z,22.42
2018-11-02T22:45:23.839Z,22.41
2018-11-02T22:47:57.266Z,22.40
2018-11-02T22:50:25.333Z,22.37
2018-11-02T22:52:53.516Z,22.37
2018-11-02T22:55:22.256Z,22.36
2018-11-02T22:57:50.345Z,22.32
2018-11-02T23:00:19.303Z,22.29
2018-11-02T23:02:48.118Z,22.29
2018-11-02T23:05:16.640Z,22.26
2018-11-02T23:07:45.079Z,22.25
2018-11-02T23:10:13.210Z,22.23
2018-11-02T23:12:41.930Z,22.22
2018-11-02T23:15:10.924Z,22.19
2018-11-02T23:17:39.358Z,22.18
2018-11-02T23:20:09.549Z,22.16
2018-11-02T23:22:37.679Z,22.12
2018-11-02T23:25:06.853Z,22.10
2018-11-02T23:27:35.235Z,22.09
2018-11-02T23:30:03.533Z,22.08
2018-11-02T23:32:31.875Z,22.05
2018-11-02T23:35:00.006Z,22.02
2018-11-02T23:37:28.220Z,22.02
2018-11-02T23:39:56.451Z,21.99
2018-11-02T23:42:24.611Z,21.98
2018-11-02T23:44:52.805Z,21.93
2018-11-02T23:47:20.929Z,21.92
2018-11-02T23:49:49.117Z,21.90
2018-11-02T23:52:17.266Z,21.88
2018-11-02T23:54:45.497Z,21.87
2018-11-02T23:57:13.680Z,21.84
2018-11-02T23:59:41.945Z,21.81
